sensor_id;sensor_type;location;lat;lon;timestamp;P1;durP1;ratioP1;P2;durP2;ratioP2
23185;SDS011;11761;51.324;4.590;2022-09-09T00:00:45;0.20;;;0.20;;
23185;SDS011;11761;51.324;4.590;2022-09-09T00:08:42;0.00;;;0.00;;
23185;SDS011;11761;51.324;4.590;2022-09-09T00:11:24;0.10;;;0.10;;
23185;SDS011;11761;51.324;4.590;2022-09-09T00:14:03;0.10;;;0.10;;
23185;SDS011;11761;51.324;4.590;2022-09-09T00:16:39;0.90;;;0.52;;
23185;SDS011;11761;51.324;4.590;2022-09-09T00:22:15;0.10;;;0.10;;
23185;SDS011;11761;51.324;4.590;2022-09-09T00:24:44;0.00;;;0.00;;
23185;SDS011;11761;51.324;4.590;2022-09-09T00:27:23;0.10;;;0.10;;
23185;SDS011;11761;51.324;4.590;2022-09-09T00:32:49;2.90;;;1.08;;
23185;SDS011;11761;51.324;4.590;2022-09-09T00:36:01;0.10;;;0.10;;
23185;SDS011;11761;51.324;4.590;2022-09-09T00:38:18;0.00;;;0.00;;
23185;SDS011;11761;51.324;4.590;2022-09-09T00:40:53;0.00;;;0.00;;
23185;SDS011;11761;51.324;4.590;2022-09-09T00:43:30;0.30;;;0.30;;
23185;SDS011;11761;51.324;4.590;2022-09-09T00:51:15;0.00;;;0.00;;
23185;SDS011;11761;51.324;4.590;2022-09-09T00:59:40;0.52;;;0.52;;
23185;SDS011;11761;51.324;4.590;2022-09-09T01:02:17;0.10;;;0.10;;
23185;SDS011;11761;51.324;4.590;2022-09-09T01:04:48;0.20;;;0.20;;
23185;SDS011;11761;51.324;4.590;2022-09-09T01:07:18;0.10;;;0.10;;
23185;SDS011;11761;51.324;4.590;2022-09-09T01:12:38;0.00;;;0.00;;
23185;SDS011;11761;51.324;4.590;2022-09-09T01:15:09;0.10;;;0.10;;
23185;SDS011;11761;51.324;4.590;2022-09-09T01:18:09;0.03;;;0.03;;
23185;SDS011;11761;51.324;4.590;2022-09-09T01:23:27;0.10;;;0.10;;
23185;SDS011;11761;51.324;4.590;2022-09-09T01:26:12;0.10;;;0.10;;
23185;SDS011;11761;51.324;4.590;2022-09-09T01:28:43;0.10;;;0.10;;
23185;SDS011;11761;51.324;4.590;2022-09-09T01:31:14;0.00;;;0.00;;
23185;SDS011;11761;51.324;4.590;2022-09-09T01:34:13;0.15;;;0.15;;
23185;SDS011;11761;51.324;4.590;2022-09-09T01:36:57;0.10;;;0.10;;
23185;SDS011;11761;51.324;4.590;2022-09-09T01:39:27;0.57;;;0.43;;
23185;SDS011;11761;51.324;4.590;2022-09-09T01:41:54;0.10;;;0.10;;
23185;SDS011;11761;51.324;4.590;2022-09-09T01:44:21;0.10;;;0.10;;
23185;SDS011;11761;51.324;4.590;2022-09-09T01:46:48;0.10;;;0.10;;
23185;SDS011;11761;51.324;4.590;2022-09-09T01:49:14;0.00;;;0.00;;
23185;SDS011;11761;51.324;4.590;2022-09-09T01:51:41;0.10;;;0.10;;
23185;SDS011;11761;51.324;4.590;2022-09-09T01:54:08;0.10;;;0.10;;
23185;SDS011;11761;51.324;4.590;2022-09-09T01:56:44;0.20;;;0.17;;
23185;SDS011;11761;51.324;4.590;2022-09-09T02:02:13;0.20;;;0.20;;
23185;SDS011;11761;51.324;4.590;2022-09-09T02:04:47;0.00;;;0.00;;
23185;SDS011;11761;51.324;4.590;2022-09-09T02:10:01;0.05;;;0.05;;
23185;SDS011;11761;51.324;4.590;2022-09-09T02:12:39;0.55;;;0.45;;
23185;SDS011;11761;51.324;4.590;2022-09-09T02:15:52;0.00;;;0.00;;
23185;SDS011;11761;51.324;4.590;2022-09-09T02:18:08;0.10;;;0.10;;
23185;SDS011;11761;51.324;4.590;2022-09-09T02:20:38;0.00;;;0.00;;
23185;SDS011;11761;51.324;4.590;2022-09-09T02:23:05;0.00;;;0.00;;
23185;SDS011;11761;51.324;4.590;2022-09-09T02:25:34;0.45;;;0.20;;
23185;SDS011;11761;51.324;4.590;2022-09-09T02:28:03;0.00;;;0.00;;
23185;SDS011;11761;51.324;4.590;2022-09-09T02:30:32;0.10;;;0.10;;
23185;SDS011;11761;51.324;4.590;2022-09-09T02:33:00;0.00;;;0.00;;
23185;SDS011;11761;51.324;4.590;2022-09-09T02:35:31;0.00;;;0.00;;
23185;SDS011;11761;51.324;4.590;2022-09-09T02:38:03;0.00;;;0.00;;
23185;SDS011;11761;51.324;4.590;2022-09-09T02:40:34;0.00;;;0.00;;
23185;SDS011;11761;51.324;4.590;2022-09-09T02:43:00;0.98;;;0.98;;
23185;SDS011;11761;51.324;4.590;2022-09-09T02:45:31;0.00;;;0.00;;
23185;SDS011;11761;51.324;4.590;2022-09-09T02:50:34;0.00;;;0.00;;
23185;SDS011;11761;51.324;4.590;2022-09-09T02:53:18;0.00;;;0.00;;
23185;SDS011;11761;51.324;4.590;2022-09-09T02:55:58;0.25;;;0.25;;
23185;SDS011;11761;51.324;4.590;2022-09-09T02:58:31;0.10;;;0.10;;
23185;SDS011;11761;51.324;4.590;2022-09-09T03:00:58;0.25;;;0.25;;
23185;SDS011;11761;51.324;4.590;2022-09-09T03:03:26;0.30;;;0.30;;
23185;SDS011;11761;51.324;4.590;2022-09-09T03:05:52;0.90;;;0.38;;
23185;SDS011;11761;51.324;4.590;2022-09-09T03:08:18;0.32;;;0.32;;
23185;SDS011;11761;51.324;4.590;2022-09-09T03:10:45;0.00;;;0.00;;
23185;SDS011;11761;51.324;4.590;2022-09-09T03:13:11;0.55;;;0.55;;
23185;SDS011;11761;51.324;4.590;2022-09-09T03:15:38;0.10;;;0.10;;
23185;SDS011;11761;51.324;4.590;2022-09-09T03:18:04;0.05;;;0.05;;
23185;SDS011;11761;51.324;4.590;2022-09-09T03:20:30;0.20;;;0.20;;
23185;SDS011;11761;51.324;4.590;2022-09-09T03:22:57;0.00;;;0.00;;
23185;SDS011;11761;51.324;4.590;2022-09-09T03:25:25;0.17;;;0.17;;
23185;SDS011;11761;51.324;4.590;2022-09-09T03:27:52;0.00;;;0.00;;
23185;SDS011;11761;51.324;4.590;2022-09-09T03:30:21;0.13;;;0.13;;
23185;SDS011;11761;51.324;4.590;2022-09-09T03:32:48;0.00;;;0.00;;
23185;SDS011;11761;51.324;4.590;2022-09-09T03:35:14;0.00;;;0.00;;
23185;SDS011;11761;51.324;4.590;2022-09-09T03:37:41;0.15;;;0.15;;
23185;SDS011;11761;51.324;4.590;2022-09-09T03:40:07;0.40;;;0.30;;
23185;SDS011;11761;51.324;4.590;2022-09-09T03:42:35;0.10;;;0.10;;
23185;SDS011;11761;51.324;4.590;2022-09-09T03:45:03;0.10;;;0.10;;
23185;SDS011;11761;51.324;4.590;2022-09-09T03:47:30;0.00;;;0.00;;
23185;SDS011;11761;51.324;4.590;2022-09-09T03:49:56;0.00;;;0.00;;
23185;SDS011;11761;51.324;4.590;2022-09-09T03:52:23;0.20;;;0.20;;
23185;SDS011;11761;51.324;4.590;2022-09-09T03:54:51;0.00;;;0.00;;
23185;SDS011;11761;51.324;4.590;2022-09-09T03:57:19;0.00;;;0.00;;
23185;SDS011;11761;51.324;4.590;2022-09-09T03:59:45;0.20;;;0.20;;
23185;SDS011;11761;51.324;4.590;2022-09-09T04:02:11;1.30;;;0.93;;
23185;SDS011;11761;51.324;4.590;2022-09-09T04:04:38;0.17;;;0.17;;
23185;SDS011;11761;51.324;4.590;2022-09-09T04:07:04;0.00;;;0.00;;
23185;SDS011;11761;51.324;4.590;2022-09-09T04:09:32;0.00;;;0.00;;
23185;SDS011;11761;51.324;4.590;2022-09-09T04:11:58;0.50;;;0.50;;
23185;SDS011;11761;51.324;4.590;2022-09-09T04:14:25;0.10;;;0.10;;
23185;SDS011;11761;51.324;4.590;2022-09-09T04:16:54;0.13;;;0.13;;
23185;SDS011;11761;51.324;4.590;2022-09-09T04:19:21;0.10;;;0.10;;
23185;SDS011;11761;51.324;4.590;2022-09-09T04:21:47;0.00;;;0.00;;
23185;SDS011;11761;51.324;4.590;2022-09-09T04:24:16;0.00;;;0.00;;
23185;SDS011;11761;51.324;4.590;2022-09-09T04:26:43;0.38;;;0.38;;
23185;SDS011;11761;51.324;4.590;2022-09-09T04:29:09;0.10;;;0.10;;
23185;SDS011;11761;51.324;4.590;2022-09-09T04:31:35;0.20;;;0.20;;
23185;SDS011;11761;51.324;4.590;2022-09-09T04:34:01;0.10;;;0.10;;
23185;SDS011;11761;51.324;4.590;2022-09-09T04:36:31;0.10;;;0.10;;
23185;SDS011;11761;51.324;4.590;2022-09-09T04:38:58;0.10;;;0.10;;
23185;SDS011;11761;51.324;4.590;2022-09-09T04:41:24;0.22;;;0.20;;
23185;SDS011;11761;51.324;4.590;2022-09-09T04:43:50;0.28;;;0.28;;
23185;SDS011;11761;51.324;4.590;2022-09-09T04:46:19;0.10;;;0.10;;
23185;SDS011;11761;51.324;4.590;2022-09-09T04:48:46;0.10;;;0.10;;
23185;SDS011;11761;51.324;4.590;2022-09-09T04:51:13;0.30;;;0.30;;
23185;SDS011;11761;51.324;4.590;2022-09-09T04:53:39;0.00;;;0.00;;
23185;SDS011;11761;51.324;4.590;2022-09-09T04:56:07;0.00;;;0.00;;
23185;SDS011;11761;51.324;4.590;2022-09-09T04:58:35;0.63;;;0.47;;
23185;SDS011;11761;51.324;4.590;2022-09-09T05:01:12;0.30;;;0.20;;
23185;SDS011;11761;51.324;4.590;2022-09-09T05:03:42;0.00;;;0.00;;
23185;SDS011;11761;51.324;4.590;2022-09-09T05:06:11;0.05;;;0.05;;
23185;SDS011;11761;51.324;4.590;2022-09-09T05:08:39;6.70;;;1.17;;
23185;SDS011;11761;51.324;4.590;2022-09-09T05:11:16;0.98;;;0.75;;
23185;SDS011;11761;51.324;4.590;2022-09-09T05:13:48;0.05;;;0.05;;
23185;SDS011;11761;51.324;4.590;2022-09-09T05:16:16;0.10;;;0.10;;
23185;SDS011;11761;51.324;4.590;2022-09-09T05:18:43;0.00;;;0.00;;
23185;SDS011;11761;51.324;4.590;2022-09-09T05:21:10;0.00;;;0.00;;
23185;SDS011;11761;51.324;4.590;2022-09-09T05:23:37;0.10;;;0.10;;
23185;SDS011;11761;51.324;4.590;2022-09-09T05:26:04;0.52;;;0.32;;
23185;SDS011;11761;51.324;4.590;2022-09-09T05:28:33;1.45;;;1.00;;
23185;SDS011;11761;51.324;4.590;2022-09-09T05:31:04;0.10;;;0.10;;
23185;SDS011;11761;51.324;4.590;2022-09-09T05:36:04;0.00;;;0.00;;
23185;SDS011;11761;51.324;4.590;2022-09-09T05:38:31;0.00;;;0.00;;
23185;SDS011;11761;51.324;4.590;2022-09-09T05:40:58;0.10;;;0.10;;
23185;SDS011;11761;51.324;4.590;2022-09-09T05:43:25;0.10;;;0.10;;
23185;SDS011;11761;51.324;4.590;2022-09-09T05:46:00;0.00;;;0.00;;
23185;SDS011;11761;51.324;4.590;2022-09-09T05:48:31;0.00;;;0.00;;
23185;SDS011;11761;51.324;4.590;2022-09-09T05:50:58;0.10;;;0.10;;
23185;SDS011;11761;51.324;4.590;2022-09-09T05:53:25;0.00;;;0.00;;
23185;SDS011;11761;51.324;4.590;2022-09-09T05:56:11;0.00;;;0.00;;
23185;SDS011;11761;51.324;4.590;2022-09-09T05:58:41;0.10;;;0.10;;
23185;SDS011;11761;51.324;4.590;2022-09-09T06:01:13;0.20;;;0.20;;
23185;SDS011;11761;51.324;4.590;2022-09-09T06:03:41;0.43;;;0.15;;
23185;SDS011;11761;51.324;4.590;2022-09-09T06:06:10;0.15;;;0.15;;
23185;SDS011;11761;51.324;4.590;2022-09-09T06:08:38;0.20;;;0.20;;
23185;SDS011;11761;51.324;4.590;2022-09-09T06:11:07;0.00;;;0.00;;
23185;SDS011;11761;51.324;4.590;2022-09-09T06:13:41;0.00;;;0.00;;
23185;SDS011;11761;51.324;4.590;2022-09-09T06:16:10;0.03;;;0.03;;
23185;SDS011;11761;51.324;4.590;2022-09-09T06:18:37;0.00;;;0.00;;
23185;SDS011;11761;51.324;4.590;2022-09-09T06:21:05;0.35;;;0.32;;
23185;SDS011;11761;51.324;4.590;2022-09-09T06:23:33;0.10;;;0.10;;
23185;SDS011;11761;51.324;4.590;2022-09-09T06:28:34;0.03;;;0.03;;
23185;SDS011;11761;51.324;4.590;2022-09-09T06:31:03;0.10;;;0.10;;
23185;SDS011;11761;51.324;4.590;2022-09-09T06:33:31;0.03;;;0.03;;
23185;SDS011;11761;51.324;4.590;2022-09-09T06:36:04;0.10;;;0.10;;
23185;SDS011;11761;51.324;4.590;2022-09-09T06:38:31;0.15;;;0.15;;
23185;SDS011;11761;51.324;4.590;2022-09-09T06:40:58;0.00;;;0.00;;
23185;SDS011;11761;51.324;4.590;2022-09-09T06:43:25;1.17;;;0.85;;
23185;SDS011;11761;51.324;4.590;2022-09-09T06:45:59;0.00;;;0.00;;
23185;SDS011;11761;51.324;4.590;2022-09-09T06:48:26;0.10;;;0.10;;
23185;SDS011;11761;51.324;4.590;2022-09-09T06:51:06;0.25;;;0.25;;
23185;SDS011;11761;51.324;4.590;2022-09-09T06:53:34;0.05;;;0.05;;
23185;SDS011;11761;51.324;4.590;2022-09-09T06:56:02;0.10;;;0.10;;
23185;SDS011;11761;51.324;4.590;2022-09-09T06:58:43;0.00;;;0.00;;
23185;SDS011;11761;51.324;4.590;2022-09-09T07:01:11;0.20;;;0.20;;
23185;SDS011;11761;51.324;4.590;2022-09-09T07:03:39;0.10;;;0.10;;
23185;SDS011;11761;51.324;4.590;2022-09-09T07:06:06;0.15;;;0.15;;
23185;SDS011;11761;51.324;4.590;2022-09-09T07:08:34;0.10;;;0.10;;
23185;SDS011;11761;51.324;4.590;2022-09-09T07:11:04;0.38;;;0.38;;
23185;SDS011;11761;51.324;4.590;2022-09-09T07:13:31;0.00;;;0.00;;
23185;SDS011;11761;51.324;4.590;2022-09-09T07:16:05;0.00;;;0.00;;
23185;SDS011;11761;51.324;4.590;2022-09-09T07:18:32;0.10;;;0.10;;
23185;SDS011;11761;51.324;4.590;2022-09-09T07:20:58;0.63;;;0.25;;
23185;SDS011;11761;51.324;4.590;2022-09-09T07:23:25;0.45;;;0.45;;
23185;SDS011;11761;51.324;4.590;2022-09-09T07:25:51;0.28;;;0.28;;
23185;SDS011;11761;51.324;4.590;2022-09-09T07:28:18;0.10;;;0.10;;
23185;SDS011;11761;51.324;4.590;2022-09-09T07:30:58;0.00;;;0.00;;
23185;SDS011;11761;51.324;4.590;2022-09-09T07:33:28;0.73;;;0.73;;
23185;SDS011;11761;51.324;4.590;2022-09-09T07:36:02;0.00;;;0.00;;
23185;SDS011;11761;51.324;4.590;2022-09-09T07:38:31;0.00;;;0.00;;
23185;SDS011;11761;51.324;4.590;2022-09-09T07:41:04;0.10;;;0.10;;
23185;SDS011;11761;51.324;4.590;2022-09-09T07:43:41;0.13;;;0.13;;
23185;SDS011;11761;51.324;4.590;2022-09-09T07:46:09;0.10;;;0.10;;
23185;SDS011;11761;51.324;4.590;2022-09-09T07:48:37;0.00;;;0.00;;
23185;SDS011;11761;51.324;4.590;2022-09-09T07:51:10;0.00;;;0.00;;
23185;SDS011;11761;51.324;4.590;2022-09-09T07:53:40;0.10;;;0.10;;
23185;SDS011;11761;51.324;4.590;2022-09-09T07:56:10;0.55;;;0.25;;
23185;SDS011;11761;51.324;4.590;2022-09-09T07:58:39;0.00;;;0.00;;
23185;SDS011;11761;51.324;4.590;2022-09-09T08:01:07;0.17;;;0.17;;
23185;SDS011;11761;51.324;4.590;2022-09-09T08:03:34;0.30;;;0.30;;
23185;SDS011;11761;51.324;4.590;2022-09-09T08:06:05;0.22;;;0.22;;
23185;SDS011;11761;51.324;4.590;2022-09-09T08:08:33;0.10;;;0.10;;
23185;SDS011;11761;51.324;4.590;2022-09-09T08:11:05;0.28;;;0.28;;
23185;SDS011;11761;51.324;4.590;2022-09-09T08:13:35;1.40;;;1.33;;
23185;SDS011;11761;51.324;4.590;2022-09-09T08:16:12;0.10;;;0.10;;
23185;SDS011;11761;51.324;4.590;2022-09-09T08:18:41;1.08;;;0.85;;
23185;SDS011;11761;51.324;4.590;2022-09-09T08:21:08;0.63;;;0.30;;
23185;SDS011;11761;51.324;4.590;2022-09-09T08:23:38;0.03;;;0.03;;
23185;SDS011;11761;51.324;4.590;2022-09-09T08:26:08;0.15;;;0.15;;
23185;SDS011;11761;51.324;4.590;2022-09-09T08:28:38;0.00;;;0.00;;
23185;SDS011;11761;51.324;4.590;2022-09-09T08:33:42;0.00;;;0.00;;
23185;SDS011;11761;51.324;4.590;2022-09-09T08:36:12;0.00;;;0.00;;
23185;SDS011;11761;51.324;4.590;2022-09-09T08:38:41;0.00;;;0.00;;
23185;SDS011;11761;51.324;4.590;2022-09-09T08:43:58;0.15;;;0.15;;
23185;SDS011;11761;51.324;4.590;2022-09-09T08:49:03;0.00;;;0.00;;
23185;SDS011;11761;51.324;4.590;2022-09-09T08:51:31;0.03;;;0.03;;
23185;SDS011;11761;51.324;4.590;2022-09-09T08:53:59;0.00;;;0.00;;
23185;SDS011;11761;51.324;4.590;2022-09-09T08:56:28;0.10;;;0.10;;
23185;SDS011;11761;51.324;4.590;2022-09-09T08:58:58;0.00;;;0.00;;
23185;SDS011;11761;51.324;4.590;2022-09-09T09:07:05;0.10;;;0.10;;
23185;SDS011;11761;51.324;4.590;2022-09-09T09:12:10;0.00;;;0.00;;
23185;SDS011;11761;51.324;4.590;2022-09-09T09:14:42;0.22;;;0.22;;
23185;SDS011;11761;51.324;4.590;2022-09-09T09:17:11;0.10;;;0.10;;
23185;SDS011;11761;51.324;4.590;2022-09-09T09:19:40;0.40;;;0.40;;
23185;SDS011;11761;51.324;4.590;2022-09-09T09:24:53;0.20;;;0.20;;
23185;SDS011;11761;51.324;4.590;2022-09-09T09:30:14;0.00;;;0.00;;
23185;SDS011;11761;51.324;4.590;2022-09-09T09:35:27;5.05;;;1.38;;
23185;SDS011;11761;51.324;4.590;2022-09-09T09:37:53;0.43;;;0.43;;
23185;SDS011;11761;51.324;4.590;2022-09-09T09:40:20;0.10;;;0.10;;
23185;SDS011;11761;51.324;4.590;2022-09-09T09:43:21;0.47;;;0.22;;
23185;SDS011;11761;51.324;4.590;2022-09-09T09:45:43;0.00;;;0.00;;
23185;SDS011;11761;51.324;4.590;2022-09-09T09:48:13;0.00;;;0.00;;
23185;SDS011;11761;51.324;4.590;2022-09-09T09:50:50;0.43;;;0.40;;
23185;SDS011;11761;51.324;4.590;2022-09-09T09:55:59;0.30;;;0.30;;
23185;SDS011;11761;51.324;4.590;2022-09-09T10:01:26;0.10;;;0.10;;
23185;SDS011;11761;51.324;4.590;2022-09-09T10:03:54;0.20;;;0.20;;
23185;SDS011;11761;51.324;4.590;2022-09-09T10:06:34;0.55;;;0.50;;
23185;SDS011;11761;51.324;4.590;2022-09-09T10:09:02;0.00;;;0.00;;
23185;SDS011;11761;51.324;4.590;2022-09-09T10:11:40;0.32;;;0.32;;
23185;SDS011;11761;51.324;4.590;2022-09-09T10:14:22;0.00;;;0.00;;
23185;SDS011;11761;51.324;4.590;2022-09-09T10:22:47;0.05;;;0.05;;
23185;SDS011;11761;51.324;4.590;2022-09-09T10:28:25;0.00;;;0.00;;
23185;SDS011;11761;51.324;4.590;2022-09-09T10:31:17;0.00;;;0.00;;
23185;SDS011;11761;51.324;4.590;2022-09-09T10:36:44;0.47;;;0.30;;
23185;SDS011;11761;51.324;4.590;2022-09-09T10:39:33;0.00;;;0.00;;
23185;SDS011;11761;51.324;4.590;2022-09-09T10:42:07;0.22;;;0.22;;
23185;SDS011;11761;51.324;4.590;2022-09-09T10:44:48;0.00;;;0.00;;
23185;SDS011;11761;51.324;4.590;2022-09-09T10:56:09;1.75;;;1.65;;
23185;SDS011;11761;51.324;4.590;2022-09-09T10:58:54;0.10;;;0.10;;
23185;SDS011;11761;51.324;4.590;2022-09-09T11:01:36;0.10;;;0.10;;
23185;SDS011;11761;51.324;4.590;2022-09-09T11:04:13;0.00;;;0.00;;
23185;SDS011;11761;51.324;4.590;2022-09-09T11:06:50;0.28;;;0.28;;
23185;SDS011;11761;51.324;4.590;2022-09-09T11:09:22;0.10;;;0.10;;
23185;SDS011;11761;51.324;4.590;2022-09-09T11:17:06;0.05;;;0.05;;
23185;SDS011;11761;51.324;4.590;2022-09-09T11:19:41;0.10;;;0.10;;
23185;SDS011;11761;51.324;4.590;2022-09-09T11:22:29;0.00;;;0.00;;
23185;SDS011;11761;51.324;4.590;2022-09-09T11:25:03;0.10;;;0.10;;
23185;SDS011;11761;51.324;4.590;2022-09-09T11:44:39;0.38;;;0.38;;
23185;SDS011;11761;51.324;4.590;2022-09-09T11:47:20;0.05;;;0.05;;
23185;SDS011;11761;51.324;4.590;2022-09-09T11:52:42;0.90;;;0.75;;
23185;SDS011;11761;51.324;4.590;2022-09-09T11:55:33;0.10;;;0.10;;
23185;SDS011;11761;51.324;4.590;2022-09-09T11:58:03;0.10;;;0.10;;
23185;SDS011;11761;51.324;4.590;2022-09-09T12:00:40;0.75;;;0.75;;
23185;SDS011;11761;51.324;4.590;2022-09-09T12:03:33;0.00;;;0.00;;
23185;SDS011;11761;51.324;4.590;2022-09-09T12:08:58;0.25;;;0.25;;
23185;SDS011;11761;51.324;4.590;2022-09-09T12:11:33;0.10;;;0.10;;
23185;SDS011;11761;51.324;4.590;2022-09-09T12:14:00;0.10;;;0.10;;
23185;SDS011;11761;51.324;4.590;2022-09-09T12:16:34;0.00;;;0.00;;
23185;SDS011;11761;51.324;4.590;2022-09-09T12:19:14;0.00;;;0.00;;
23185;SDS011;11761;51.324;4.590;2022-09-09T12:22:00;0.00;;;0.00;;
23185;SDS011;11761;51.324;4.590;2022-09-09T12:24:35;0.30;;;0.30;;
23185;SDS011;11761;51.324;4.590;2022-09-09T12:32:29;0.45;;;0.45;;
23185;SDS011;11761;51.324;4.590;2022-09-09T12:39:58;0.85;;;0.30;;
23185;SDS011;11761;51.324;4.590;2022-09-09T12:42:27;0.43;;;0.43;;
23185;SDS011;11761;51.324;4.590;2022-09-09T12:44:58;0.10;;;0.10;;
23185;SDS011;11761;51.324;4.590;2022-09-09T12:47:30;0.03;;;0.03;;
23185;SDS011;11761;51.324;4.590;2022-09-09T12:53:24;0.10;;;0.10;;
23185;SDS011;11761;51.324;4.590;2022-09-09T12:56:03;0.10;;;0.10;;
23185;SDS011;11761;51.324;4.590;2022-09-09T12:58:33;0.10;;;0.10;;
23185;SDS011;11761;51.324;4.590;2022-09-09T13:01:02;2.17;;;0.60;;
23185;SDS011;11761;51.324;4.590;2022-09-09T13:03:31;0.20;;;0.20;;
23185;SDS011;11761;51.324;4.590;2022-09-09T13:05:59;0.00;;;0.00;;
23185;SDS011;11761;51.324;4.590;2022-09-09T13:08:37;5.47;;;1.55;;
23185;SDS011;11761;51.324;4.590;2022-09-09T13:11:06;7.10;;;1.85;;
23185;SDS011;11761;51.324;4.590;2022-09-09T13:13:41;2.53;;;1.40;;
23185;SDS011;11761;51.324;4.590;2022-09-09T13:16:18;4.90;;;1.65;;
23185;SDS011;11761;51.324;4.590;2022-09-09T13:18:51;6.60;;;1.88;;
23185;SDS011;11761;51.324;4.590;2022-09-09T13:21:18;2.50;;;1.40;;
23185;SDS011;11761;51.324;4.590;2022-09-09T13:23:48;3.40;;;1.52;;
23185;SDS011;11761;51.324;4.590;2022-09-09T13:26:22;4.65;;;1.42;;
23185;SDS011;11761;51.324;4.590;2022-09-09T13:28:51;5.68;;;1.80;;
23185;SDS011;11761;51.324;4.590;2022-09-09T13:33:48;4.10;;;1.30;;
23185;SDS011;11761;51.324;4.590;2022-09-09T13:36:14;3.63;;;1.38;;
23185;SDS011;11761;51.324;4.590;2022-09-09T13:38:52;4.60;;;1.50;;
23185;SDS011;11761;51.324;4.590;2022-09-09T13:41:23;2.35;;;1.63;;
23185;SDS011;11761;51.324;4.590;2022-09-09T13:43:53;5.47;;;1.85;;
23185;SDS011;11761;51.324;4.590;2022-09-09T13:46:33;2.92;;;1.60;;
23185;SDS011;11761;51.324;4.590;2022-09-09T13:51:41;3.38;;;1.20;;
23185;SDS011;11761;51.324;4.590;2022-09-09T13:54:13;2.78;;;1.40;;
23185;SDS011;11761;51.324;4.590;2022-09-09T13:56:41;4.80;;;1.55;;
23185;SDS011;11761;51.324;4.590;2022-09-09T13:59:11;2.63;;;1.20;;
23185;SDS011;11761;51.324;4.590;2022-09-09T14:01:39;3.40;;;1.30;;
23185;SDS011;11761;51.324;4.590;2022-09-09T14:04:06;5.45;;;1.42;;
23185;SDS011;11761;51.324;4.590;2022-09-09T14:06:37;4.28;;;1.38;;
23185;SDS011;11761;51.324;4.590;2022-09-09T14:09:05;3.00;;;1.33;;
23185;SDS011;11761;51.324;4.590;2022-09-09T14:11:32;2.08;;;1.13;;
23185;SDS011;11761;51.324;4.590;2022-09-09T14:13:58;4.15;;;1.45;;
23185;SDS011;11761;51.324;4.590;2022-09-09T14:16:26;4.95;;;1.55;;
23185;SDS011;11761;51.324;4.590;2022-09-09T14:18:53;4.72;;;2.15;;
23185;SDS011;11761;51.324;4.590;2022-09-09T14:21:22;8.30;;;2.00;;
23185;SDS011;11761;51.324;4.590;2022-09-09T14:23:48;4.28;;;1.98;;
23185;SDS011;11761;51.324;4.590;2022-09-09T14:26:14;4.43;;;2.42;;
23185;SDS011;11761;51.324;4.590;2022-09-09T14:28:41;6.85;;;2.67;;
23185;SDS011;11761;51.324;4.590;2022-09-09T14:31:07;5.80;;;3.25;;
23185;SDS011;11761;51.324;4.590;2022-09-09T14:33:33;4.53;;;3.20;;
23185;SDS011;11761;51.324;4.590;2022-09-09T14:36:04;4.68;;;2.95;;
23185;SDS011;11761;51.324;4.590;2022-09-09T14:38:34;7.43;;;3.00;;
23185;SDS011;11761;51.324;4.590;2022-09-09T14:41:05;5.70;;;2.63;;
23185;SDS011;11761;51.324;4.590;2022-09-09T14:43:32;7.28;;;2.92;;
23185;SDS011;11761;51.324;4.590;2022-09-09T14:46:08;7.05;;;2.97;;
23185;SDS011;11761;51.324;4.590;2022-09-09T14:48:36;4.55;;;2.60;;
23185;SDS011;11761;51.324;4.590;2022-09-09T14:51:05;7.03;;;2.70;;
23185;SDS011;11761;51.324;4.590;2022-09-09T14:53:35;6.10;;;2.63;;
23185;SDS011;11761;51.324;4.590;2022-09-09T14:56:09;8.82;;;2.90;;
23185;SDS011;11761;51.324;4.590;2022-09-09T14:58:38;6.68;;;3.22;;
23185;SDS011;11761;51.324;4.590;2022-09-09T15:01:05;8.30;;;3.55;;
23185;SDS011;11761;51.324;4.590;2022-09-09T15:03:36;8.43;;;3.47;;
23185;SDS011;11761;51.324;4.590;2022-09-09T15:06:06;7.15;;;3.70;;
23185;SDS011;11761;51.324;4.590;2022-09-09T15:08:37;7.25;;;3.13;;
23185;SDS011;11761;51.324;4.590;2022-09-09T15:11:12;8.88;;;3.35;;
23185;SDS011;11761;51.324;4.590;2022-09-09T15:13:39;6.97;;;4.03;;
23185;SDS011;11761;51.324;4.590;2022-09-09T15:16:12;8.20;;;3.50;;
23185;SDS011;11761;51.324;4.590;2022-09-09T15:18:40;5.22;;;2.75;;
23185;SDS011;11761;51.324;4.590;2022-09-09T15:21:17;4.65;;;2.50;;
23185;SDS011;11761;51.324;4.590;2022-09-09T15:23:48;5.82;;;2.85;;
23185;SDS011;11761;51.324;4.590;2022-09-09T15:26:14;5.53;;;3.08;;
23185;SDS011;11761;51.324;4.590;2022-09-09T15:28:42;6.95;;;2.97;;
23185;SDS011;11761;51.324;4.590;2022-09-09T15:31:11;8.90;;;3.60;;
23185;SDS011;11761;51.324;4.590;2022-09-09T15:33:39;10.35;;;3.67;;
23185;SDS011;11761;51.324;4.590;2022-09-09T15:38:50;6.53;;;3.60;;
23185;SDS011;11761;51.324;4.590;2022-09-09T15:41:18;4.97;;;3.40;;
23185;SDS011;11761;51.324;4.590;2022-09-09T15:43:51;5.30;;;3.17;;
23185;SDS011;11761;51.324;4.590;2022-09-09T15:46:26;6.43;;;3.53;;
23185;SDS011;11761;51.324;4.590;2022-09-09T15:49:06;6.53;;;4.03;;
23185;SDS011;11761;51.324;4.590;2022-09-09T15:51:34;9.25;;;4.82;;
23185;SDS011;11761;51.324;4.590;2022-09-09T15:54:03;8.48;;;4.35;;
23185;SDS011;11761;51.324;4.590;2022-09-09T15:56:29;8.77;;;4.00;;
23185;SDS011;11761;51.324;4.590;2022-09-09T15:58:56;7.50;;;4.00;;
23185;SDS011;11761;51.324;4.590;2022-09-09T16:01:24;10.02;;;3.70;;
23185;SDS011;11761;51.324;4.590;2022-09-09T16:03:53;7.90;;;3.50;;
23185;SDS011;11761;51.324;4.590;2022-09-09T16:06:20;5.68;;;3.17;;
23185;SDS011;11761;51.324;4.590;2022-09-09T16:08:49;8.48;;;3.50;;
23185;SDS011;11761;51.324;4.590;2022-09-09T16:11:18;10.00;;;3.75;;
23185;SDS011;11761;51.324;4.590;2022-09-09T16:13:46;5.85;;;3.08;;
23185;SDS011;11761;51.324;4.590;2022-09-09T16:16:17;4.72;;;3.25;;
23185;SDS011;11761;51.324;4.590;2022-09-09T16:18:51;9.30;;;3.92;;
23185;SDS011;11761;51.324;4.590;2022-09-09T16:21:20;5.90;;;4.10;;
23185;SDS011;11761;51.324;4.590;2022-09-09T16:23:55;8.82;;;4.18;;
23185;SDS011;11761;51.324;4.590;2022-09-09T16:26:22;5.80;;;3.72;;
23185;SDS011;11761;51.324;4.590;2022-09-09T16:28:49;6.30;;;4.03;;
23185;SDS011;11761;51.324;4.590;2022-09-09T16:31:16;7.75;;;4.35;;
23185;SDS011;11761;51.324;4.590;2022-09-09T16:33:44;7.38;;;3.60;;
23185;SDS011;11761;51.324;4.590;2022-09-09T16:36:12;8.35;;;3.55;;
23185;SDS011;11761;51.324;4.590;2022-09-09T16:38:40;7.97;;;3.17;;
23185;SDS011;11761;51.324;4.590;2022-09-09T16:41:06;5.63;;;3.55;;
23185;SDS011;11761;51.324;4.590;2022-09-09T16:43:34;9.68;;;3.50;;
23185;SDS011;11761;51.324;4.590;2022-09-09T16:46:02;7.25;;;3.40;;
23185;SDS011;11761;51.324;4.590;2022-09-09T16:48:33;5.22;;;3.10;;
23185;SDS011;11761;51.324;4.590;2022-09-09T16:51:04;8.85;;;3.35;;
23185;SDS011;11761;51.324;4.590;2022-09-09T16:53:32;5.60;;;3.20;;
23185;SDS011;11761;51.324;4.590;2022-09-09T16:56:04;5.88;;;3.15;;
23185;SDS011;11761;51.324;4.590;2022-09-09T17:00:58;4.97;;;3.15;;
23185;SDS011;11761;51.324;4.590;2022-09-09T17:03:25;5.53;;;3.08;;
23185;SDS011;11761;51.324;4.590;2022-09-09T17:05:51;4.07;;;3.08;;
23185;SDS011;11761;51.324;4.590;2022-09-09T17:08:17;5.95;;;3.03;;
23185;SDS011;11761;51.324;4.590;2022-09-09T17:10:43;11.68;;;3.50;;
23185;SDS011;11761;51.324;4.590;2022-09-09T17:13:09;7.20;;;3.30;;
23185;SDS011;11761;51.324;4.590;2022-09-09T17:15:42;5.18;;;3.20;;
23185;SDS011;11761;51.324;4.590;2022-09-09T17:18:09;6.88;;;3.45;;
23185;SDS011;11761;51.324;4.590;2022-09-09T17:20:36;7.78;;;3.55;;
23185;SDS011;11761;51.324;4.590;2022-09-09T17:23:03;5.93;;;3.50;;
23185;SDS011;11761;51.324;4.590;2022-09-09T17:25:29;6.63;;;4.00;;
23185;SDS011;11761;51.324;4.590;2022-09-09T17:27:55;8.52;;;4.13;;
23185;SDS011;11761;51.324;4.590;2022-09-09T17:30:21;6.28;;;3.85;;
23185;SDS011;11761;51.324;4.590;2022-09-09T17:32:48;8.82;;;4.32;;